Terminal Aerodrome Forecast
Issued by NWS Portland, ME

Home | Current Version | Previous Version | Text Only | Print | Product List | Glossary On
Versions: 1 2 3 4 5 6 7 8 9 10 11 12 13 14 15 16 17 18 19 20 21
659
FTUS41 KGYX 280900 AAA
TAFPWM
TAF AMD
KPWM 280900Z 2809/2906 00000KT P6SM FEW110 SCT250
     FM281500 16007KT P6SM SCT050
     FM290000 16004KT P6SM BKN250 PROB30 2900/2904 3SM TS BKN050CB
     FM290400 33003KT 4SM BR SCT250=

USA.gov is the U.S. government's official web portal to all federal, state and local government web resources and services.